• Join FlightAware (Why Join?)
  • Login
  • US Flag 
10:22AM EDT


 

Airport Tracker/Info


-or-


 

Live Flight TrackerFlight Track Log ✈ N45NF ✈ 21-Jul-2013 ✈ 1F0 - KCHA

Flight Track Log - Related Links

Times and Time Zones

All times are in EDT time to prevent confusion due to time zone crossing. See the N45NF flight status page for this flight to view local times or setup timezone preferences in your user account.

Time Position Orientation Groundspeed Altitude Reporting Facility
EDT Latitude Longitude Course Direction KTS MPH feet Rate Location/Type
01:37PM 34.1122 -96.9969 73° East 402 463 7,300  Level Fort Worth Center
01:38PM 34.1431 -96.9242 63° Northeast 329 379 9,900 2,040 Climbing Fort Worth Center
01:39PM 34.1572 -96.8236 80° East 281 323 11,400 1,740 Climbing Fort Worth Center
01:40PM 34.1694 -96.7181 82° East 297 342 13,400 1,920 Climbing Fort Worth Center
01:42PM 34.2226 -96.3970 82° East  Level FlightAware Approximate
01:42PM 34.1972 -96.4919 81° East 333 383 17,300  Level Fort Worth Center
01:43PM 34.2391 -96.2772 73° East  Level FlightAware Approximate
01:43PM 34.2108 -96.3764 82° East 338 389 19,100  Level Fort Worth Center
01:44PM 34.2244 -96.2581 82° East 343 395 20,900 1,800 Climbing Fort Worth Center
01:45PM 34.2378 -96.1447 82° East 348 400 22,700 1,680 Climbing Fort Worth Center
01:46PM 34.2514 -96.0267 82° East 348 400 24,300 1,560 Climbing Fort Worth Center
01:47PM 34.2644 -95.9133 82° East 348 400 25,900 1,440 Climbing Fort Worth Center
01:48PM 34.2797 -95.7950 81° East 348 400 27,200 1,200 Climbing Fort Worth Center
01:49PM 34.2950 -95.6739 81° East 353 406 28,400 1,200 Climbing Fort Worth Center
01:50PM 34.3117 -95.5378 82° East 363 418 29,600 1,080 Climbing Fort Worth Center
01:51PM 34.3244 -95.4169 83° East 369 425 30,600 660 Climbing Fort Worth Center
01:52PM 34.3369 -95.2883 83° East 369 425 31,000 660 Climbing Fort Worth Center
01:53PM 34.3575 -95.1519 80° East 383 441 32,000 1,200 Climbing Fort Worth Center
01:54PM 34.3697 -95.0183 84° East 395 455 33,400 1,200 Climbing Fort Worth Center
01:55PM 34.3858 -94.8869 82° East 395 455 34,500 960 Climbing Fort Worth Center
01:57PM 34.4069 -94.6769 83° East 386 444 36,000 540 Climbing Memphis Center
01:58PM 34.4197 -94.5417 83° East 397 457 36,000  Level Memphis Center
01:59PM 34.4350 -94.3939 83° East 420 483 36,000  Level Memphis Center
02:00PM 34.4528 -94.2358 82° East 426 490 36,000  Level Memphis Center
02:01PM 34.4697 -94.0906 82° East 431 496 36,000 360 Level Memphis Center
02:02PM 34.4778 -93.9550 86° East 436 502 36,800 960 Climbing Memphis Center
02:03PM 34.4922 -93.8144 83° East 436 502 38,000 1,200 Climbing Memphis Center
02:04PM 34.5042 -93.6764 84° East 424 488 39,200 1,140 Climbing Memphis Center
02:05PM 34.5203 -93.5458 81° East 410 472 40,300 900 Climbing Memphis Center
02:06PM 34.5300 -93.4075 85° East 402 463 41,000 300 Climbing Memphis Center
02:07PM 34.5436 -93.2744 83° East 397 457 41,000  Level Memphis Center
02:08PM 34.5594 -93.1286 82° East 408 470 41,000  Level Memphis Center
02:09PM 34.5733 -92.9678 84° East 428 493 41,000  Level Memphis Center
02:10PM 34.5867 -92.8294 83° East 428 493 41,000  Level Memphis Center
02:11PM 34.5997 -92.6858 84° East 423 487 41,000  Level Memphis Center
02:12PM 34.6106 -92.5475 85° East 418 481 41,000  Level Memphis Center
02:13PM 34.6067 -92.4036 92° East 418 481 41,000  Level Memphis Center
02:14PM 34.5714 -92.2717 108° East 413 475 41,000  Level Memphis Center
02:15PM 34.5358 -92.1372 108° East 413 475 41,000  Level Memphis Center
02:16PM 34.5042 -92.0028 106° East 413 475 41,000  Level Memphis Center
02:17PM 34.4661 -91.8711 109° East 413 475 41,000  Level Memphis Center
02:18PM 34.4322 -91.7344 107° East 413 475 41,000  Level Memphis Center
02:19PM 34.3939 -91.6031 109° East 413 475 41,000  Level Memphis Center
02:20PM 34.3619 -91.4717 106° East 413 475 41,000  Level Memphis Center
02:21PM 34.3317 -91.3531 107° East 413 475 41,000  Level Memphis Center
02:22PM 34.2950 -91.2169 108° East 413 475 41,000  Level Memphis Center
02:23PM 34.2644 -91.0861 106° East 413 475 41,000  Level Memphis Center
02:24PM 34.2297 -90.9500 107° East 413 475 41,000  Level Memphis Center
02:25PM 34.1989 -90.8217 106° East 413 475 41,000  Level Memphis Center
02:26PM 34.1639 -90.6886 108° East 408 470 41,000  Level Memphis Center
02:27PM 34.1308 -90.5581 107° East 408 470 41,000  Level Memphis Center
02:28PM 34.0956 -90.4225 107° East 408 470 41,000  Level Memphis Center
02:29PM 34.0578 -90.2794 108° East 403 464 41,000  Level Memphis Center
02:30PM 34.0264 -90.1442 106° East 408 470 41,000  Level Memphis Center
02:31PM 34.0011 -90.0089 103° East 413 475 41,000  Level Memphis Center
02:32PM 33.9778 -89.8736 102° East 413 475 41,000  Level Memphis Center
02:33PM 33.9561 -89.7361 101° East 413 475 41,000  Level Memphis Center
02:34PM 33.9367 -89.5986 100° East 413 475 41,000  Level Memphis Center
02:35PM 33.9169 -89.4611 100° East 419 482 41,000  Level Memphis Center
02:36PM 33.8992 -89.3236 99° East 414 476 41,000  Level Memphis Center
02:37PM 33.8811 -89.1861 99° East 414 476 41,000  Level Memphis Center
02:38PM 33.8653 -89.0464 98° East 414 476 41,000  Level Memphis Center
02:39PM 33.8469 -88.9092 99° East 414 476 41,000  Level Memphis Center
02:40PM 33.8331 -88.7917 98° East 408 470 41,000  Level Memphis Center
02:41PM 33.8144 -88.6494 99° East 408 470 41,000  Level Memphis Center
02:42PM 33.8167 -88.5169 89° East 408 470 41,000  Level Memphis Center
02:43PM 33.8542 -88.3786 72° East 408 470 41,000  Level Memphis Center
02:44PM 33.8875 -88.2453 73° East 413 475 41,000  Level Memphis Center
02:45PM 33.9247 -88.1067 72° East 429 494 41,000  Level Memphis Center
02:46PM 33.9575 -87.9656 74° East 429 494 41,000 -480 Level Memphis Center
02:47PM 33.9906 -87.8319 73° East 421 484 40,100 -660 Descending Memphis Center
02:49PM 34.0611 -87.5642 72° East 416 479 39,100 -600 Descending Atlanta Center
02:50PM 34.1108 -87.4283 66° East 430 495 38,400 -1,320 Descending Atlanta Center
02:52PM 34.2206 -87.1389 65° Northeast 448 516 35,200 -1,140 Descending Atlanta Center
02:53PM 34.2617 -86.9969 71° East 453 521 35,000 -120 Descending Atlanta Center
02:54PM 34.2694 -86.8489 86° East 436 502 35,000 -120 Level Atlanta Center
02:55PM 34.2789 -86.7011 86° East 436 502 34,800 -540 Descending Atlanta Center
02:56PM 34.2903 -86.5531 85° East 441 507 34,000 -900 Descending Atlanta Center
02:57PM 34.3058 -86.4128 82° East 441 507 33,000 -1,080 Descending Atlanta Center
02:58PM 34.3106 -86.2669 88° East 428 493 31,900 -1,440 Descending Atlanta Center
02:59PM 34.2961 -86.1333 97° East 410 472 30,200 -1,200 Descending Atlanta Center
03:00PM 34.3044 -86.0103 85° East 388 447 29,600 -1,080 Descending Atlanta Center
03:01PM 34.4092 -85.9850 11° North 299 344 28,100 -840 Descending Atlanta Center
03:02PM 34.5156 -85.9875 359° North 323 372 28,000 -60 Descending Atlanta Center
03:03PM 34.6200 -85.9900 359° North 341 392 28,000 -720 Level Atlanta Center
03:04PM 34.6964 -85.9058 42° Northeast 347 399 26,600 -1,680 Descending Atlanta Center
03:05PM 34.7625 -85.7961 54° Northeast 361 415 24,700 -2,040 Descending Atlanta Center
03:06PM 34.7811 -85.6572 81° East 370 426 22,600 -2,520 Descending Atlanta Center
03:07PM 34.7933 -85.5311 83° East 370 426 19,700 -3,300 Descending Atlanta Center
03:08PM 34.8342 -85.4153 67° East 370 426 16,100 -3,600 Descending Atlanta Center
03:09PM 34.9019 -85.3253 47° Northeast 358 412 12,500 -3,120 Descending Atlanta Center
03:10PM 34.9614 -85.2400 50° Northeast 345 397 9,900 -2,580 Descending Atlanta Center
03:11PM 35.0308 -85.1828 34° Northeast 312 359 7,400 -2,700 Descending Atlanta Center
03:12PM 35.0958 -85.1253 36° Northeast 300 345 4,600 -2,220 Descending Atlanta Center
03:13PM 35.1589 -85.0778 32° Northeast 289 333 3,000 -840 Descending Atlanta Center
03:14PM 35.2067 -85.0989 340° North 189 217 3,000  Level Atlanta Center
03:15PM 35.1853 -85.1569 246° West 99 114 3,000 -300 Level Atlanta Center
03:16PM 35.1267 -85.1714 191° South 138 159 2,400 -660 Descending Atlanta Center
03:17PM 35.0808 -85.1886 197° South 156 180 1,700 -720 Descending Atlanta Center
03:18PM 35.0494 -85.2008 198° South 161 185 1,000 -720 Descending Atlanta Center
03:20PM 35.0333 -85.2000 210° Southwest  Level FlightAware Approximate